Time;durP1;ratioP1;P1;durP2;ratioP2;P2;SDS_P1;SDS_P2;PMS_P1;PMS_P2;Temp;Humidity;BMP_temperature;BMP_pressure;BME280_temperature;BME280_humidity;BME280_pressure;Samples;Min_cycle;Max_cycle;Signal;HPM_P1;HPM_P2
2022/04/24 00:00:05;;;;;;;89.75;43.97;;;9.20;99.90;;;;;;5217283;28;20041;-73
2022/04/24 00:02:37;;;;;;;99.13;46.92;;;9.20;99.90;;;;;;5214929;28;20586;-74
2022/04/24 00:05:10;;;;;;;87.28;42.78;;;9.10;99.90;;;;;;5213262;28;20063;-74
2022/04/24 00:07:43;;;;;;;78.90;41.40;;;9.10;99.90;;;;;;5214686;28;20049;-73
2022/04/24 00:10:15;;;;;;;82.68;43.03;;;9.10;99.90;;;;;;5215580;28;20681;-74
2022/04/24 00:12:49;;;;;;;80.57;41.65;;;9.10;99.90;;;;;;5215384;28;20103;-73
2022/04/24 00:15:22;;;;;;;78.03;40.42;;;9.10;99.90;;;;;;5214561;28;20107;-74
2022/04/24 00:17:54;;;;;;;82.38;41.45;;;9.10;99.90;;;;;;5230978;28;20044;-75
2022/04/24 00:20:27;;;;;;;78.35;40.15;;;9.00;99.90;;;;;;5214386;28;20048;-72
2022/04/24 00:22:59;;;;;;;84.35;42.58;;;9.10;99.90;;;;;;5217224;28;20412;-73
2022/04/24 00:25:31;;;;;;;79.63;41.15;;;9.10;99.90;;;;;;5216888;28;20068;-74
2022/04/24 00:28:04;;;;;;;78.88;43.20;;;9.00;99.90;;;;;;5215122;28;20085;-73
2022/04/24 00:30:36;;;;;;;76.43;39.75;;;9.00;99.90;;;;;;5195057;28;20049;-75
2022/04/24 00:33:09;;;;;;;80.32;41.90;;;9.00;99.90;;;;;;5196964;28;20045;-73
2022/04/24 00:35:42;;;;;;;88.15;44.15;;;9.00;99.90;;;;;;5195148;28;20504;-73
2022/04/24 00:38:14;;;;;;;80.25;42.22;;;9.00;99.90;;;;;;5208614;28;20041;-73
2022/04/24 00:40:47;;;;;;;82.93;43.30;;;9.00;99.90;;;;;;5208888;28;20048;-73
2022/04/24 00:43:20;;;;;;;95.85;45.10;;;9.00;99.90;;;;;;5214574;28;20049;-73
2022/04/24 00:46:40;;;;;;;83.35;41.25;;;9.00;99.90;;;;;;5210674;28;20056;-73
2022/04/24 00:49:13;;;;;;;84.00;43.20;;;9.00;99.90;;;;;;5208281;28;20048;-74
2022/04/24 00:51:45;;;;;;;84.25;43.47;;;9.00;99.90;;;;;;5214660;28;20466;-74
2022/04/24 00:54:18;;;;;;;89.05;43.40;;;9.00;99.90;;;;;;5215247;28;20049;-74
2022/04/24 00:56:51;;;;;;;82.65;41.42;;;9.00;99.90;;;;;;5213673;28;20040;-72
2022/04/24 00:59:23;;;;;;;72.38;38.97;;;9.00;99.90;;;;;;5216020;28;20477;-73
2022/04/24 01:01:57;;;;;;;81.05;41.67;;;9.00;99.90;;;;;;5211345;28;20063;-73
2022/04/24 01:04:29;;;;;;;81.93;42.22;;;9.00;99.90;;;;;;5209328;28;20063;-72
2022/04/24 01:07:02;;;;;;;87.72;43.47;;;9.00;99.90;;;;;;5209695;28;20049;-73
2022/04/24 01:09:35;;;;;;;81.43;42.08;;;9.00;99.90;;;;;;5205734;28;20590;-73
2022/04/24 01:12:08;;;;;;;82.68;43.05;;;9.00;99.90;;;;;;5216534;28;20551;-73
2022/04/24 01:14:40;;;;;;;83.10;42.87;;;9.00;99.90;;;;;;5215923;28;20068;-72
2022/04/24 01:17:14;;;;;;;85.37;43.07;;;9.00;99.90;;;;;;5206329;28;20299;-74
2022/04/24 01:19:47;;;;;;;88.32;44.83;;;9.00;99.90;;;;;;5214897;28;20312;-73
2022/04/24 01:22:20;;;;;;;87.97;45.22;;;8.90;99.90;;;;;;5217264;28;20096;-74
2022/04/24 01:24:52;;;;;;;95.80;48.13;;;9.00;99.90;;;;;;5210260;28;20052;-74
2022/04/24 01:27:25;;;;;;;98.18;49.47;;;9.00;99.90;;;;;;5213964;28;20036;-74
2022/04/24 01:29:57;;;;;;;95.80;49.58;;;8.90;99.90;;;;;;5208376;28;21031;-74
2022/04/24 01:32:29;;;;;;;96.35;47.45;;;9.00;99.90;;;;;;5206268;28;20133;-73
2022/04/24 01:35:02;;;;;;;102.13;48.53;;;9.00;99.90;;;;;;5211193;28;20350;-73
2022/04/24 01:37:35;;;;;;;90.90;45.67;;;9.00;99.90;;;;;;5214825;28;21083;-72
2022/04/24 01:40:08;;;;;;;85.28;45.40;;;9.00;99.90;;;;;;5213653;28;20059;-74
2022/04/24 01:42:40;;;;;;;94.70;47.00;;;9.00;99.90;;;;;;5212318;28;20539;-75
2022/04/24 01:45:12;;;;;;;94.22;45.58;;;9.10;99.90;;;;;;5225389;28;20053;-73
2022/04/24 01:47:45;;;;;;;87.10;45.60;;;9.10;99.90;;;;;;5210304;28;20048;-74
2022/04/24 01:50:17;;;;;;;97.07;47.33;;;9.10;99.90;;;;;;5213501;28;20285;-73
2022/04/24 01:52:50;;;;;;;86.80;44.08;;;9.10;99.90;;;;;;5206032;28;20044;-73
2022/04/24 01:55:22;;;;;;;84.82;46.20;;;9.20;99.90;;;;;;5217618;28;20116;-74
2022/04/24 01:57:56;;;;;;;91.15;46.92;;;9.20;99.90;;;;;;5205949;28;20041;-73
2022/04/24 02:00:30;;;;;;;80.45;42.00;;;9.30;99.90;;;;;;5209875;28;20540;-74
2022/04/24 02:03:02;;;;;;;92.28;46.22;;;9.30;99.90;;;;;;5211323;28;20530;-74
2022/04/24 02:05:35;;;;;;;98.20;48.88;;;9.30;99.90;;;;;;5211206;28;20048;-74
2022/04/24 02:08:07;;;;;;;87.68;45.15;;;9.20;99.90;;;;;;5217408;28;20914;-74
2022/04/24 02:10:39;;;;;;;89.55;45.42;;;9.20;99.90;;;;;;5214477;28;20048;-73
2022/04/24 02:13:12;;;;;;;88.65;45.42;;;9.20;99.90;;;;;;5208445;28;20511;-73
2022/04/24 02:15:49;;;;;;;99.78;47.70;;;9.20;99.90;;;;;;5210882;28;20044;-74
2022/04/24 02:18:22;;;;;;;97.80;46.95;;;9.10;99.90;;;;;;5217997;28;20041;-74
2022/04/24 02:20:54;;;;;;;85.53;45.83;;;9.10;99.90;;;;;;5211034;28;20049;-73
2022/04/24 02:23:27;;;;;;;92.72;46.40;;;9.10;99.90;;;;;;5212611;28;20044;-74
2022/04/24 02:26:00;;;;;;;91.43;46.75;;;9.10;99.90;;;;;;5211796;28;20663;-73
2022/04/24 02:28:32;;;;;;;88.65;45.13;;;9.00;99.90;;;;;;5204931;28;20062;-73
2022/04/24 02:31:04;;;;;;;94.68;47.72;;;9.10;99.90;;;;;;5208178;28;20516;-73
2022/04/24 02:33:37;;;;;;;92.47;45.42;;;9.10;99.90;;;;;;5213140;28;20065;-73
2022/04/24 02:36:09;;;;;;;103.35;49.03;;;9.00;99.90;;;;;;5215806;28;20044;-74
2022/04/24 02:38:41;;;;;;;95.93;48.78;;;9.00;99.90;;;;;;5208244;28;20049;-75
2022/04/24 02:41:14;;;;;;;85.25;44.75;;;9.00;99.90;;;;;;5209230;28;20392;-73
2022/04/24 02:43:46;;;;;;;81.75;43.42;;;8.90;99.90;;;;;;5213599;28;20040;-75
2022/04/24 02:46:19;;;;;;;82.53;43.10;;;9.00;99.90;;;;;;5212374;28;20488;-73
2022/04/24 02:48:51;;;;;;;99.72;48.25;;;8.90;99.90;;;;;;5211554;28;20075;-74
2022/04/24 02:51:24;;;;;;;89.55;43.95;;;8.90;99.90;;;;;;5198654;28;20053;-75
2022/04/24 02:53:56;;;;;;;103.78;49.50;;;8.80;99.90;;;;;;5213506;28;20612;-73
2022/04/24 02:56:28;;;;;;;100.80;48.80;;;8.90;99.90;;;;;;5206941;28;20113;-72
2022/04/24 02:59:01;;;;;;;107.55;49.72;;;8.90;99.90;;;;;;5209922;28;20502;-74
2022/04/24 03:01:34;;;;;;;99.85;48.67;;;8.80;99.90;;;;;;5208296;28;20622;-73
2022/04/24 03:04:07;;;;;;;91.70;45.65;;;8.80;99.90;;;;;;5226485;28;20652;-73
2022/04/24 03:06:39;;;;;;;91.30;46.65;;;8.80;99.90;;;;;;5212791;28;20990;-73
2022/04/24 03:09:11;;;;;;;94.38;46.72;;;8.80;99.90;;;;;;5212223;28;20056;-73
2022/04/24 03:11:44;;;;;;;101.47;48.97;;;8.80;99.90;;;;;;5214773;28;20396;-73
2022/04/24 03:14:16;;;;;;;95.25;46.75;;;8.80;99.90;;;;;;5207755;28;20049;-73
2022/04/24 03:16:48;;;;;;;96.07;48.03;;;8.80;99.90;;;;;;5207743;28;20044;-73
2022/04/24 03:19:21;;;;;;;95.18;47.92;;;8.80;99.90;;;;;;5212592;28;20056;-74
2022/04/24 03:21:53;;;;;;;90.22;45.55;;;8.70;99.90;;;;;;5217641;28;20053;-73
2022/04/24 03:24:25;;;;;;;95.95;48.17;;;8.70;99.90;;;;;;5211794;28;20087;-74
2022/04/24 03:26:58;;;;;;;98.25;46.42;;;8.70;99.90;;;;;;5209176;28;20881;-74
2022/04/24 03:29:30;;;;;;;89.97;47.05;;;8.70;99.90;;;;;;5212020;28;20037;-73
2022/04/24 03:32:03;;;;;;;100.45;49.97;;;8.70;99.90;;;;;;5211182;28;20476;-74
2022/04/24 03:34:41;;;;;;;99.32;48.80;;;8.60;99.90;;;;;;5219111;28;20041;-73
2022/04/24 03:37:14;;;;;;;112.57;52.33;;;8.60;99.90;;;;;;5204399;28;20064;-73
2022/04/24 03:39:47;;;;;;;108.72;51.13;;;8.50;99.90;;;;;;5210946;28;20612;-73
2022/04/24 03:42:19;;;;;;;105.88;52.10;;;8.50;99.90;;;;;;5207596;28;20041;-73
2022/04/24 03:44:58;;;;;;;108.75;52.83;;;8.50;99.90;;;;;;5211169;28;20044;-73
2022/04/24 03:47:31;;;;;;;114.68;54.97;;;8.50;99.90;;;;;;5211801;28;20036;-74
2022/04/24 03:50:05;;;;;;;108.70;53.72;;;8.50;99.90;;;;;;5213052;28;20496;-72
2022/04/24 03:52:37;;;;;;;110.57;54.25;;;8.50;99.90;;;;;;5212491;28;20501;-72
2022/04/24 03:55:10;;;;;;;106.75;52.20;;;8.60;99.90;;;;;;5211668;28;26180;-73
2022/04/24 03:57:42;;;;;;;108.80;53.33;;;8.60;99.90;;;;;;5205143;28;20060;-73
2022/04/24 04:00:15;;;;;;;109.35;53.30;;;8.70;99.90;;;;;;5206447;28;20063;-73
2022/04/24 04:02:48;;;;;;;101.30;49.47;;;8.70;99.90;;;;;;5209375;28;20053;-72
2022/04/24 04:05:22;;;;;;;108.97;53.92;;;8.70;99.90;;;;;;5209166;28;20049;-73
2022/04/24 04:07:54;;;;;;;102.45;49.75;;;8.70;99.90;;;;;;5212045;28;20045;-72
2022/04/24 04:10:26;;;;;;;95.80;47.75;;;8.80;99.90;;;;;;5206824;28;20045;-73
2022/04/24 04:12:59;;;;;;;106.53;52.83;;;8.80;99.90;;;;;;5210944;28;20750;-73
2022/04/24 04:15:32;;;;;;;115.72;54.17;;;8.80;99.90;;;;;;5210242;28;20051;-73
2022/04/24 04:18:05;;;;;;;94.50;47.97;;;8.80;99.90;;;;;;5209671;28;20787;-73
2022/04/24 04:20:37;;;;;;;110.90;52.67;;;8.80;99.90;;;;;;5213756;28;20048;-73
2022/04/24 04:23:10;;;;;;;102.30;50.40;;;8.80;99.90;;;;;;5204203;28;20485;-73
2022/04/24 04:25:43;;;;;;;90.17;45.43;;;8.80;99.90;;;;;;5212039;28;20045;-74
2022/04/24 04:28:15;;;;;;;104.78;49.70;;;8.80;99.90;;;;;;5207348;28;20302;-74
2022/04/24 04:30:47;;;;;;;100.47;47.88;;;8.80;99.90;;;;;;5210415;28;20064;-73
2022/04/24 04:33:20;;;;;;;107.30;50.65;;;8.80;99.90;;;;;;5211198;28;20053;-74
2022/04/24 04:35:52;;;;;;;98.18;48.65;;;8.80;99.90;;;;;;5207007;28;20051;-72
2022/04/24 04:38:24;;;;;;;94.00;47.67;;;8.80;99.90;;;;;;5205125;28;20060;-73
2022/04/24 04:40:57;;;;;;;94.95;49.38;;;8.80;99.90;;;;;;5199457;28;20080;-73
2022/04/24 04:43:30;;;;;;;80.93;42.55;;;8.80;99.90;;;;;;5202988;28;20049;-74
2022/04/24 04:46:02;;;;;;;81.13;41.97;;;8.80;99.90;;;;;;5201869;28;20071;-73
2022/04/24 04:48:35;;;;;;;87.53;44.30;;;8.90;99.90;;;;;;5209692;28;20048;-74
2022/04/24 04:51:07;;;;;;;83.65;42.03;;;8.90;99.90;;;;;;5201244;28;20053;-72
2022/04/24 04:53:39;;;;;;;85.85;41.92;;;9.00;99.90;;;;;;5213362;28;20041;-71
2022/04/24 04:56:13;;;;;;;77.15;39.42;;;9.00;99.90;;;;;;5210616;28;20081;-71
2022/04/24 04:58:45;;;;;;;76.07;40.22;;;9.00;99.90;;;;;;5202738;28;20056;-71
2022/04/24 05:01:18;;;;;;;77.35;39.00;;;9.00;99.90;;;;;;5202964;28;20044;-71
2022/04/24 05:03:51;;;;;;;75.45;38.15;;;9.00;99.90;;;;;;5200514;28;20928;-73
2022/04/24 05:06:23;;;;;;;67.90;35.75;;;9.00;99.90;;;;;;5213703;28;20045;-72
2022/04/24 05:08:55;;;;;;;74.63;35.78;;;9.10;99.90;;;;;;5208793;28;20066;-71
2022/04/24 05:11:27;;;;;;;64.38;33.47;;;9.10;99.90;;;;;;5210035;28;20051;-71
2022/04/24 05:14:00;;;;;;;69.15;37.38;;;9.20;99.90;;;;;;5213430;28;20052;-72
2022/04/24 05:16:38;;;;;;;65.90;33.17;;;9.20;99.90;;;;;;5210766;28;20045;-71
2022/04/24 05:19:10;;;;;;;62.03;34.03;;;9.20;99.90;;;;;;5204568;28;20059;-71
2022/04/24 05:21:43;;;;;;;60.72;32.00;;;9.30;99.90;;;;;;5208347;28;20048;-72
2022/04/24 05:24:15;;;;;;;61.65;34.03;;;9.30;99.90;;;;;;5202865;28;20056;-73
2022/04/24 05:26:47;;;;;;;67.30;34.22;;;9.40;99.90;;;;;;5196948;28;20060;-71
2022/04/24 05:29:20;;;;;;;60.15;33.80;;;9.50;99.90;;;;;;5208389;28;20051;-72
2022/04/24 05:31:52;;;;;;;63.72;34.50;;;9.50;99.90;;;;;;5211433;28;20056;-71
2022/04/24 05:34:25;;;;;;;58.10;32.80;;;9.50;99.90;;;;;;5214361;28;20912;-72
2022/04/24 05:36:57;;;;;;;61.00;32.53;;;9.60;99.90;;;;;;5210831;28;20614;-72
2022/04/24 05:39:30;;;;;;;60.45;33.60;;;9.70;99.90;;;;;;5211797;28;20067;-72
2022/04/24 05:42:02;;;;;;;58.47;32.95;;;9.70;99.90;;;;;;5211079;28;20053;-73
2022/04/24 05:44:35;;;;;;;61.47;32.80;;;9.80;99.90;;;;;;5201531;28;20091;-72
2022/04/24 05:47:07;;;;;;;58.28;32.03;;;9.80;99.90;;;;;;5201205;28;20056;-71
2022/04/24 05:49:40;;;;;;;60.38;30.42;;;9.90;99.90;;;;;;5200889;28;20049;-72
2022/04/24 05:52:12;;;;;;;53.22;30.05;;;10.00;99.90;;;;;;5212457;28;20052;-72
2022/04/24 05:54:44;;;;;;;55.92;31.10;;;10.00;99.90;;;;;;5205469;28;20048;-72
2022/04/24 05:57:17;;;;;;;51.70;29.52;;;10.20;99.90;;;;;;5199603;28;20041;-72
2022/04/24 05:59:49;;;;;;;55.85;29.58;;;10.20;99.90;;;;;;5208443;28;20056;-72
2022/04/24 06:02:21;;;;;;;51.50;28.85;;;10.40;99.90;;;;;;5202848;28;20044;-72
2022/04/24 06:04:54;;;;;;;49.38;27.75;;;10.60;99.90;;;;;;5202187;28;20048;-71
2022/04/24 06:07:27;;;;;;;46.88;26.88;;;10.90;99.90;;;;;;5198679;28;20551;-71
2022/04/24 06:09:59;;;;;;;51.03;29.15;;;11.00;99.90;;;;;;5204540;28;20511;-70
2022/04/24 06:12:32;;;;;;;43.03;24.23;;;11.30;99.90;;;;;;5201847;28;20045;-74
2022/04/24 06:15:05;;;;;;;41.90;23.80;;;11.30;99.90;;;;;;5197342;28;20041;-72
2022/04/24 06:17:38;;;;;;;44.47;23.77;;;11.30;99.90;;;;;;5202730;28;20052;-72
2022/04/24 06:20:11;;;;;;;40.47;24.33;;;11.40;99.90;;;;;;5203522;28;20045;-72
2022/04/24 06:22:48;;;;;;;42.15;24.50;;;11.50;99.90;;;;;;5201713;28;20056;-72
2022/04/24 06:25:24;;;;;;;41.92;24.63;;;11.60;99.90;;;;;;5198450;28;20624;-71
2022/04/24 06:27:57;;;;;;;39.88;22.98;;;11.90;99.90;;;;;;5203415;28;20051;-70
2022/04/24 06:30:31;;;;;;;33.00;20.30;;;12.10;99.90;;;;;;5208445;28;20124;-72
2022/04/24 06:33:10;;;;;;;31.75;19.63;;;12.20;99.90;;;;;;5202148;28;20045;-72
2022/04/24 06:35:42;;;;;;;31.52;19.10;;;12.30;99.90;;;;;;5206538;28;20049;-72
2022/04/24 06:38:16;;;;;;;28.77;18.30;;;12.40;99.90;;;;;;5193690;28;20698;-73
2022/04/24 06:40:48;;;;;;;29.25;16.08;;;12.50;99.90;;;;;;5205675;28;20063;-72
2022/04/24 06:43:20;;;;;;;26.40;16.55;;;12.50;99.90;;;;;;5203579;28;20052;-73
2022/04/24 06:45:53;;;;;;;23.77;15.13;;;12.60;99.90;;;;;;5199349;28;20053;-72
2022/04/24 06:48:25;;;;;;;24.73;15.70;;;12.70;99.90;;;;;;5202061;28;20049;-73
2022/04/24 06:50:58;;;;;;;25.45;16.48;;;12.80;99.90;;;;;;5191306;28;20055;-73
2022/04/24 06:53:30;;;;;;;24.40;15.00;;;12.90;98.70;;;;;;5205718;28;20057;-73
2022/04/24 06:56:04;;;;;;;23.53;15.50;;;12.90;98.60;;;;;;5209594;28;20803;-73
2022/04/24 06:58:36;;;;;;;24.92;15.00;;;13.00;97.00;;;;;;5202759;28;20044;-70
2022/04/24 07:01:19;;;;;;;25.05;14.65;;;13.00;96.90;;;;;;5204190;28;20411;-71
2022/04/24 07:03:52;;;;;;;17.95;11.95;;;13.10;96.70;;;;;;5204575;28;20053;-72
2022/04/24 07:06:28;;;;;;;17.27;10.70;;;13.10;95.40;;;;;;5204566;28;20071;-72
2022/04/24 07:09:00;;;;;;;12.75;8.48;;;13.20;93.80;;;;;;5207124;28;20051;-71
2022/04/24 07:11:34;;;;;;;12.05;7.18;;;13.10;91.60;;;;;;5205781;28;25941;-73
2022/04/24 07:14:06;;;;;;;9.65;6.90;;;13.10;91.10;;;;;;5201378;28;20087;-72
2022/04/24 07:16:39;;;;;;;8.40;5.40;;;13.00;90.40;;;;;;5197912;28;20073;-72
2022/04/24 07:19:12;;;;;;;7.53;4.38;;;13.10;90.00;;;;;;5201440;28;20491;-72
2022/04/24 07:21:44;;;;;;;6.07;4.25;;;13.30;89.90;;;;;;5189680;28;20970;-71
2022/04/24 07:24:17;;;;;;;6.80;4.32;;;13.20;87.20;;;;;;5188972;28;20083;-72
2022/04/24 07:26:49;;;;;;;9.07;3.83;;;13.20;88.10;;;;;;5189010;28;20048;-71
2022/04/24 07:29:21;;;;;;;5.13;3.10;;;13.20;87.20;;;;;;5194747;28;20052;-71
2022/04/24 07:31:54;;;;;;;5.03;2.13;;;13.30;85.80;;;;;;5194280;28;20045;-71
2022/04/24 07:34:26;;;;;;;4.05;2.53;;;13.40;84.20;;;;;;5198353;28;20412;-73
2022/04/24 07:36:59;;;;;;;3.40;2.40;;;13.50;84.20;;;;;;5211759;28;21053;-73
2022/04/24 07:39:31;;;;;;;3.80;2.50;;;13.70;84.50;;;;;;5199706;28;20048;-73
2022/04/24 07:42:04;;;;;;;2.58;1.80;;;13.80;83.20;;;;;;5195978;28;20068;-73
2022/04/24 07:44:36;;;;;;;2.65;1.95;;;14.00;83.00;;;;;;5199931;28;20048;-73
2022/04/24 07:47:09;;;;;;;2.40;1.57;;;13.90;80.30;;;;;;5206548;28;20049;-71
2022/04/24 07:49:42;;;;;;;2.08;1.52;;;13.70;80.90;;;;;;5206537;28;20037;-70
2022/04/24 07:52:14;;;;;;;2.80;2.00;;;13.50;81.30;;;;;;5200451;28;20072;-72
2022/04/24 07:54:46;;;;;;;2.15;1.67;;;13.40;81.50;;;;;;5204930;28;20500;-74
2022/04/24 07:57:19;;;;;;;2.42;1.67;;;13.40;82.10;;;;;;5204303;28;20037;-71
2022/04/24 07:59:51;;;;;;;9.05;1.98;;;13.50;82.70;;;;;;5205453;28;20075;-71
2022/04/24 08:02:24;;;;;;;1.15;1.05;;;13.70;80.70;;;;;;5207554;28;20041;-72
2022/04/24 08:04:56;;;;;;;1.83;1.48;;;13.60;80.00;;;;;;5197538;28;20049;-70
2022/04/24 08:07:29;;;;;;;1.60;1.20;;;13.70;79.30;;;;;;5209049;28;20065;-71
2022/04/24 08:10:01;;;;;;;3.28;1.15;;;13.50;78.60;;;;;;5203497;28;20052;-71
2022/04/24 08:12:33;;;;;;;1.08;0.95;;;13.50;79.90;;;;;;5214722;28;20055;-71
2022/04/24 08:15:06;;;;;;;1.00;0.82;;;13.50;78.90;;;;;;5200557;28;20068;-72
2022/04/24 08:17:39;;;;;;;1.15;0.90;;;13.50;79.20;;;;;;5202833;28;21798;-73
2022/04/24 08:20:13;;;;;;;1.42;0.80;;;13.40;79.00;;;;;;5202997;28;20055;-72
2022/04/24 08:22:48;;;;;;;2.33;0.70;;;13.30;79.60;;;;;;5198083;28;20049;-75
2022/04/24 08:25:23;;;;;;;1.30;1.10;;;13.30;79.30;;;;;;5202183;28;20059;-75
2022/04/24 08:27:57;;;;;;;6.93;1.25;;;13.40;79.80;;;;;;5206275;28;20041;-72
2022/04/24 08:30:30;;;;;;;1.92;1.08;;;13.50;80.00;;;;;;5208405;28;20037;-72
2022/04/24 08:33:02;;;;;;;1.38;1.05;;;13.70;80.50;;;;;;5209396;28;20484;-72
2022/04/24 08:35:35;;;;;;;1.10;0.80;;;13.80;79.00;;;;;;5207070;28;20053;-73
2022/04/24 08:38:08;;;;;;;1.75;0.77;;;13.80;78.60;;;;;;5207957;28;20044;-72
2022/04/24 08:40:40;;;;;;;4.40;2.15;;;13.80;79.30;;;;;;5201244;28;20059;-70
2022/04/24 08:43:14;;;;;;;4.50;2.00;;;13.80;78.50;;;;;;5199697;28;20060;-71
2022/04/24 08:45:49;;;;;;;4.40;1.75;;;13.70;78.70;;;;;;5203103;28;20048;-70
2022/04/24 08:48:22;;;;;;;2.17;1.33;;;13.70;78.80;;;;;;5203353;28;20929;-71
2022/04/24 08:50:58;;;;;;;4.45;1.30;;;13.70;79.00;;;;;;5202817;28;20059;-71
2022/04/24 08:53:33;;;;;;;2.10;1.52;;;13.70;78.60;;;;;;5201423;28;20981;-71
2022/04/24 08:56:06;;;;;;;2.30;1.85;;;13.60;79.50;;;;;;5198179;28;20055;-70
2022/04/24 08:58:39;;;;;;;1.20;1.10;;;13.70;79.70;;;;;;5209417;28;20049;-71
2022/04/24 09:01:11;;;;;;;0.95;0.90;;;13.70;79.50;;;;;;5206845;28;20107;-73
2022/04/24 09:03:44;;;;;;;1.83;1.20;;;13.70;79.40;;;;;;5206670;28;20057;-72
2022/04/24 09:06:22;;;;;;;1.23;1.05;;;13.80;79.10;;;;;;5201232;28;20055;-74
2022/04/24 09:09:05;;;;;;;1.35;1.23;;;13.70;78.50;;;;;;5203459;28;20420;-73
2022/04/24 09:11:38;;;;;;;1.35;1.02;;;13.70;79.30;;;;;;5202787;28;20045;-73
2022/04/24 09:14:18;;;;;;;1.00;0.77;;;13.60;79.00;;;;;;5202995;28;20067;-73
2022/04/24 09:16:50;;;;;;;1.02;0.93;;;13.70;79.30;;;;;;5203241;28;20048;-72
2022/04/24 09:19:24;;;;;;;1.58;0.82;;;13.80;78.70;;;;;;5206547;28;20053;-73
2022/04/24 09:22:08;;;;;;;1.27;1.00;;;13.90;78.20;;;;;;5204195;28;20504;-72
2022/04/24 09:24:54;;;;;;;2.33;0.98;;;13.90;77.10;;;;;;5212008;28;20052;-73
2022/04/24 09:27:27;;;;;;;2.25;0.82;;;13.90;78.90;;;;;;5202653;28;20072;-73
2022/04/24 09:30:00;;;;;;;1.20;0.65;;;13.70;82.50;;;;;;5209999;28;20444;-73
2022/04/24 09:32:59;;;;;;;1.90;1.02;;;13.50;82.60;;;;;;5205891;28;20568;-72
2022/04/24 09:35:33;;;;;;;1.20;0.98;;;13.40;84.00;;;;;;5204191;28;20044;-71
2022/04/24 09:38:09;;;;;;;1.50;1.17;;;13.30;84.30;;;;;;5205066;28;20051;-71
2022/04/24 09:40:49;;;;;;;0.93;0.75;;;13.20;86.20;;;;;;5202323;28;20048;-72
2022/04/24 09:43:21;;;;;;;0.80;0.73;;;13.20;85.70;;;;;;5193283;28;20749;-72
2022/04/24 09:45:54;;;;;;;3.42;0.90;;;13.20;83.50;;;;;;5194613;28;21246;-71
2022/04/24 09:48:27;;;;;;;;;;;13.20;83.40;;;;;;5200021;28;20528;-72
2022/04/24 09:50:59;;;;;;;3.80;1.10;;;13.10;82.00;;;;;;5195560;28;20765;-70
2022/04/24 09:53:41;;;;;;;0.70;0.68;;;13.20;83.40;;;;;;5195098;28;20608;-70
2022/04/24 09:56:15;;;;;;;0.70;0.52;;;13.10;82.30;;;;;;5186605;28;20055;-72
2022/04/24 09:58:49;;;;;;;2.83;0.93;;;13.30;81.70;;;;;;5189581;28;20044;-71
2022/04/24 10:01:22;;;;;;;1.27;0.73;;;13.50;81.50;;;;;;5179489;28;20588;-72
2022/04/24 10:03:56;;;;;;;0.80;0.70;;;13.80;81.50;;;;;;5188997;28;20067;-73
2022/04/24 10:06:30;;;;;;;2.83;0.70;;;14.00;80.10;;;;;;5189520;28;20048;-73
2022/04/24 10:09:04;;;;;;;1.25;0.65;;;14.20;78.60;;;;;;5184612;28;20053;-72
2022/04/24 10:11:37;;;;;;;1.10;0.63;;;14.40;77.90;;;;;;5173367;28;21006;-72
2022/04/24 10:14:14;;;;;;;4.70;0.63;;;14.60;77.70;;;;;;5182507;28;20519;-72
2022/04/24 10:16:52;;;;;;;0.60;0.60;;;14.50;73.00;;;;;;5175766;28;20045;-71
2022/04/24 10:20:02;;;;;;;0.63;0.60;;;14.70;72.30;;;;;;5203929;28;20048;-74
2022/04/24 10:22:39;;;;;;;6.50;1.08;;;14.70;71.40;;;;;;5195835;28;20465;-72
2022/04/24 10:25:13;;;;;;;1.10;0.60;;;15.00;72.00;;;;;;5210226;28;20631;-72
2022/04/24 10:27:49;;;;;;;1.20;0.60;;;15.00;70.30;;;;;;5197792;28;20049;-72
2022/04/24 10:30:23;;;;;;;2.75;0.68;;;15.10;70.40;;;;;;5180129;28;20798;-71
2022/04/24 10:33:18;;;;;;;0.95;0.57;;;15.10;69.60;;;;;;5196939;28;20040;-72
2022/04/24 10:35:55;;;;;;;1.65;0.70;;;15.10;69.10;;;;;;5207615;28;20052;-71
2022/04/24 10:38:29;;;;;;;0.50;0.50;;;14.90;67.60;;;;;;5207723;28;20630;-72
2022/04/24 10:41:04;;;;;;;0.73;0.55;;;14.80;68.90;;;;;;5199284;28;20049;-71
2022/04/24 10:43:41;;;;;;;0.75;0.70;;;14.70;68.10;;;;;;5188739;28;20171;-71
2022/04/24 10:46:28;;;;;;;1.30;0.68;;;14.70;68.50;;;;;;5200968;28;20049;-72
2022/04/24 10:49:15;;;;;;;1.35;0.75;;;14.70;68.70;;;;;;5216559;28;20044;-75
2022/04/24 10:52:01;;;;;;;1.65;0.60;;;14.70;68.50;;;;;;5210808;28;20536;-73
2022/04/24 10:54:36;;;;;;;0.70;0.63;;;14.70;69.30;;;;;;5212187;28;20045;-73
2022/04/24 10:57:21;;;;;;;0.73;0.70;;;14.70;68.80;;;;;;5216937;28;20520;-72
2022/04/24 10:59:55;;;;;;;;;;;14.70;68.60;;;;;;5207080;28;20065;-74
2022/04/24 11:02:33;;;;;;;0.65;0.65;;;14.60;69.10;;;;;;5200325;28;19925;-73
2022/04/24 11:05:07;;;;;;;2.45;0.80;;;14.70;69.90;;;;;;5204835;28;20053;-73
2022/04/24 11:07:40;;;;;;;1.15;0.80;;;14.50;68.90;;;;;;5215162;28;20751;-73
2022/04/24 11:10:17;;;;;;;2.15;0.60;;;14.50;69.00;;;;;;5204657;28;20327;-73
2022/04/24 11:12:53;;;;;;;1.05;0.63;;;14.30;69.90;;;;;;5191969;28;20463;-72
2022/04/24 11:15:27;;;;;;;2.20;0.68;;;14.30;70.20;;;;;;5207455;28;20040;-73
2022/04/24 11:17:59;;;;;;;1.08;0.50;;;14.30;69.70;;;;;;5201270;28;20572;-73
2022/04/24 11:20:33;;;;;;;0.63;0.52;;;14.30;69.90;;;;;;5189856;28;20055;-73
2022/04/24 11:23:08;;;;;;;0.60;0.60;;;14.00;69.80;;;;;;5202045;28;20084;-71
2022/04/24 11:25:41;;;;;;;1.25;0.68;;;14.00;70.50;;;;;;5208318;28;20052;-73
2022/04/24 11:28:15;;;;;;;1.60;1.00;;;14.00;70.60;;;;;;5212955;28;20090;-74
2022/04/24 11:30:48;;;;;;;1.10;1.00;;;13.90;71.00;;;;;;5211442;28;20037;-72
2022/04/24 11:33:20;;;;;;;1.02;0.60;;;14.00;71.40;;;;;;5208896;28;20045;-74
2022/04/24 11:35:53;;;;;;;0.88;0.60;;;14.00;70.60;;;;;;5220408;28;20646;-74
2022/04/24 11:38:29;;;;;;;0.85;0.60;;;13.90;70.50;;;;;;5228143;28;21235;-72
2022/04/24 11:41:03;;;;;;;1.13;0.80;;;13.80;70.70;;;;;;5216113;28;20516;-73
2022/04/24 11:43:39;;;;;;;0.43;0.40;;;13.70;70.20;;;;;;5208497;28;20064;-71
2022/04/24 11:52:49;;;;;;;1.42;0.82;;;13.60;71.30;;;;;;5194299;28;20040;-73
2022/04/24 11:55:22;;;;;;;6.68;3.28;;;13.50;71.60;;;;;;5198924;28;20052;-76
2022/04/24 11:57:57;;;;;;;1.63;1.17;;;13.60;73.30;;;;;;5206520;28;20044;-76
2022/04/24 12:00:35;;;;;;;0.60;0.60;;;13.60;71.60;;;;;;5219543;28;20056;-74
2022/04/24 12:03:08;;;;;;;1.40;0.70;;;13.40;71.30;;;;;;5212526;28;20072;-75
2022/04/24 12:05:41;;;;;;;1.70;0.83;;;13.40;72.10;;;;;;5204371;28;20044;-75
2022/04/24 12:08:13;;;;;;;0.80;0.77;;;13.50;71.30;;;;;;5201258;28;20063;-74
2022/04/24 12:10:46;;;;;;;0.88;0.70;;;13.40;70.90;;;;;;5219620;28;20068;-74
2022/04/24 12:13:22;;;;;;;0.93;0.70;;;13.40;70.80;;;;;;5208996;28;20045;-75
2022/04/24 12:15:56;;;;;;;1.50;1.20;;;13.50;70.50;;;;;;5215297;28;20051;-74
2022/04/24 12:18:28;;;;;;;0.73;0.73;;;13.50;70.50;;;;;;5208131;28;20126;-75
2022/04/24 12:21:01;;;;;;;1.20;0.82;;;13.30;70.50;;;;;;5212709;28;20048;-76
2022/04/24 12:23:34;;;;;;;0.82;0.82;;;13.40;71.50;;;;;;5210453;28;20060;-75
2022/04/24 12:26:09;;;;;;;3.40;3.10;;;13.40;71.00;;;;;;5212208;28;20063;-75
2022/04/24 12:28:42;;;;;;;1.17;0.57;;;13.40;70.70;;;;;;5192386;28;20059;-74
2022/04/24 12:31:25;;;;;;;0.75;0.60;;;13.40;71.00;;;;;;5192936;28;20051;-73
2022/04/24 12:33:58;;;;;;;2.67;1.00;;;13.40;70.00;;;;;;5203455;28;20044;-73
2022/04/24 12:36:30;;;;;;;1.50;1.05;;;13.30;70.90;;;;;;5204879;28;20045;-74
2022/04/24 12:39:06;;;;;;;1.42;0.60;;;13.30;71.50;;;;;;5206200;28;20044;-74
2022/04/24 12:41:39;;;;;;;0.85;0.80;;;13.30;70.40;;;;;;5209210;28;20049;-73
2022/04/24 12:44:12;;;;;;;1.35;0.82;;;13.20;71.20;;;;;;5217258;28;20045;-74
2022/04/24 12:46:46;;;;;;;0.73;0.73;;;13.30;71.10;;;;;;5219849;28;20543;-74
2022/04/24 12:49:29;;;;;;;1.20;1.02;;;13.20;71.20;;;;;;5222214;28;20642;-74
2022/04/24 12:52:02;;;;;;;1.85;0.85;;;13.30;71.60;;;;;;5209107;28;20039;-74
2022/04/24 12:54:34;;;;;;;2.03;0.87;;;13.30;71.00;;;;;;5212788;28;20421;-74
2022/04/24 12:57:08;;;;;;;1.65;0.82;;;13.30;71.20;;;;;;5210754;28;20041;-74
2022/04/24 12:59:40;;;;;;;0.93;0.80;;;13.30;72.20;;;;;;5215277;28;20762;-74
2022/04/24 13:02:13;;;;;;;1.48;0.82;;;13.30;72.40;;;;;;5215387;28;20705;-74
2022/04/24 13:04:46;;;;;;;0.80;0.75;;;13.30;72.50;;;;;;5214747;28;20068;-75
2022/04/24 13:07:18;;;;;;;2.65;0.80;;;13.30;72.70;;;;;;5200867;28;20055;-75
2022/04/24 13:09:51;;;;;;;1.17;0.77;;;13.40;73.10;;;;;;5208676;28;20044;-75
2022/04/24 13:12:24;;;;;;;1.37;1.13;;;13.40;72.90;;;;;;5203686;28;20053;-75
2022/04/24 13:14:57;;;;;;;1.27;1.10;;;13.50;72.70;;;;;;5209887;28;20049;-76
2022/04/24 13:20:33;;;;;;;0.80;0.80;;;13.90;72.30;;;;;;5208817;28;20045;-75
2022/04/24 13:23:19;;;;;;;1.02;0.85;;;13.90;70.90;;;;;;5202036;28;20041;-75